Time;durP1;ratioP1;P1;durP2;ratioP2;P2;SDS_P1;SDS_P2;PMS_P1;PMS_P2;Temp;Humidity;BMP_temperature;BMP_pressure;BME280_temperature;BME280_humidity;BME280_pressure;Samples;Min_cycle;Max_cycle;Signal;HPM_P1;HPM_P2
2023/04/08 00:02:20;;;;;;;2.00;1.20;;;13.20;40.40;;;;;;5001502;28;20178;-66
2023/04/08 00:04:46;;;;;;;2.10;1.30;;;13.30;42.10;;;;;;4996970;28;20198;-67
2023/04/08 00:07:12;;;;;;;1.90;1.10;;;13.20;41.70;;;;;;5001559;28;20185;-67
2023/04/08 00:09:37;;;;;;;2.00;1.20;;;13.30;40.90;;;;;;5007204;28;20178;-66
2023/04/08 00:12:03;;;;;;;1.90;1.10;;;13.30;41.80;;;;;;4992789;28;20196;-67
2023/04/08 00:14:29;;;;;;;2.80;1.60;;;13.10;42.10;;;;;;4993016;28;20197;-66
2023/04/08 00:16:54;;;;;;;2.10;1.37;;;13.20;42.10;;;;;;4993389;28;20210;-70
2023/04/08 00:19:20;;;;;;;2.00;1.20;;;13.50;42.70;;;;;;4997695;28;20185;-68
2023/04/08 00:21:47;;;;;;;2.00;1.20;;;13.10;43.40;;;;;;4993336;28;20182;-66
2023/04/08 00:24:12;;;;;;;2.10;1.30;;;13.20;43.80;;;;;;4993014;28;20181;-68
2023/04/08 00:26:38;;;;;;;2.40;1.40;;;13.10;43.80;;;;;;4991136;28;20452;-66
2023/04/08 00:29:04;;;;;;;5.10;1.77;;;13.10;43.30;;;;;;4987953;28;20186;-66
2023/04/08 00:31:29;;;;;;;1.90;1.20;;;13.30;43.60;;;;;;4999713;28;20190;-66
2023/04/08 00:33:55;;;;;;;1.90;1.20;;;13.20;44.50;;;;;;4992938;28;20173;-66
2023/04/08 00:36:21;;;;;;;1.90;1.13;;;13.60;44.50;;;;;;4992758;28;20256;-67
2023/04/08 00:38:47;;;;;;;1.90;1.17;;;13.30;43.80;;;;;;4994428;28;20184;-68
2023/04/08 00:41:13;;;;;;;1.80;1.10;;;13.10;42.20;;;;;;4991671;28;20476;-70
2023/04/08 00:43:38;;;;;;;2.10;1.40;;;12.70;42.80;;;;;;4992512;28;20199;-66
2023/04/08 00:46:04;;;;;;;3.23;1.90;;;12.70;43.60;;;;;;4992911;28;20200;-66
2023/04/08 00:48:31;;;;;;;2.00;1.30;;;12.60;44.10;;;;;;4992468;28;20190;-71
2023/04/08 00:50:57;;;;;;;2.00;1.30;;;12.70;45.00;;;;;;4994793;28;20429;-70
2023/04/08 00:53:23;;;;;;;2.20;1.30;;;12.30;45.80;;;;;;4992470;28;20428;-66
2023/04/08 00:55:48;;;;;;;1.90;1.20;;;12.20;45.70;;;;;;4991982;28;20856;-66
2023/04/08 00:58:16;;;;;;;1.90;1.20;;;11.90;47.50;;;;;;4994694;28;20202;-66
2023/04/08 01:00:51;;;;;;;2.30;1.20;;;11.70;47.90;;;;;;4984789;28;20202;-67
2023/04/08 01:03:27;;;;;;;2.00;1.30;;;11.80;47.50;;;;;;4982890;28;20416;-69
2023/04/08 01:06:19;;;;;;;1.90;1.20;;;11.90;46.90;;;;;;4992390;28;20444;-71
2023/04/08 01:08:45;;;;;;;2.10;1.30;;;11.90;47.80;;;;;;4990142;28;20437;-66
2023/04/08 01:11:12;;;;;;;2.10;1.33;;;12.60;46.30;;;;;;4989839;28;20429;-67
2023/04/08 01:13:42;;;;;;;2.57;1.60;;;12.50;46.80;;;;;;4991393;28;20480;-66
2023/04/08 01:16:14;;;;;;;2.40;1.60;;;12.70;45.00;;;;;;4991216;28;20797;-69
2023/04/08 01:18:42;;;;;;;2.27;1.53;;;12.60;44.40;;;;;;5003742;28;20428;-67
2023/04/08 01:21:08;;;;;;;2.10;1.23;;;13.00;44.50;;;;;;4990237;28;20491;-68
2023/04/08 01:23:40;;;;;;;1.90;1.20;;;13.00;44.40;;;;;;4993132;28;20473;-66
2023/04/08 01:26:06;;;;;;;2.27;1.40;;;12.90;43.50;;;;;;4998114;28;20460;-69
2023/04/08 01:28:34;;;;;;;1.90;1.20;;;13.10;43.50;;;;;;4992567;28;20448;-70
2023/04/08 01:31:01;;;;;;;1.80;1.10;;;13.00;43.20;;;;;;4988163;28;20987;-70
2023/04/08 01:33:28;;;;;;;1.80;1.10;;;13.00;43.40;;;;;;4989469;28;20452;-67
2023/04/08 01:35:54;;;;;;;2.20;1.40;;;13.00;43.70;;;;;;4989246;28;20458;-66
2023/04/08 01:38:23;;;;;;;2.00;1.30;;;13.10;44.10;;;;;;4999942;28;20487;-71
2023/04/08 01:40:50;;;;;;;2.00;1.30;;;12.70;44.30;;;;;;4989139;28;20787;-67
2023/04/08 01:43:17;;;;;;;2.10;1.40;;;12.30;46.00;;;;;;4989398;28;20437;-70
2023/04/08 01:45:44;;;;;;;2.07;1.40;;;12.30;46.50;;;;;;4991333;28;20457;-66
2023/04/08 01:48:12;;;;;;;1.97;1.30;;;12.30;46.60;;;;;;4988353;28;20912;-65
2023/04/08 01:50:42;;;;;;;1.80;1.10;;;12.10;46.00;;;;;;4991437;28;20413;-66
2023/04/08 01:53:09;;;;;;;1.90;1.30;;;11.90;48.40;;;;;;4994604;28;20496;-66
2023/04/08 01:55:37;;;;;;;1.80;1.10;;;11.80;48.30;;;;;;4992053;28;21375;-66
2023/04/08 01:58:05;;;;;;;1.80;1.17;;;11.80;49.00;;;;;;4992048;28;20452;-66
2023/04/08 02:00:32;;;;;;;1.90;1.20;;;11.90;47.80;;;;;;4992213;28;20441;-69
2023/04/08 02:02:59;;;;;;;1.90;1.20;;;11.80;48.70;;;;;;4989898;28;20433;-65
2023/04/08 02:05:25;;;;;;;2.20;1.50;;;11.60;50.10;;;;;;4999540;28;20532;-68
2023/04/08 02:07:50;;;;;;;1.90;1.20;;;11.50;50.10;;;;;;4995487;28;20432;-66
2023/04/08 02:10:16;;;;;;;2.17;1.43;;;11.70;50.20;;;;;;4996276;28;20177;-67
2023/04/08 02:12:43;;;;;;;2.10;1.57;;;12.10;48.30;;;;;;4995437;28;20684;-66
2023/04/08 02:15:10;;;;;;;2.83;1.87;;;12.40;46.80;;;;;;4995473;28;20619;-66
2023/04/08 02:17:53;;;;;;;2.10;1.40;;;12.30;47.00;;;;;;5000415;28;20474;-66
2023/04/08 02:20:33;;;;;;;2.20;1.60;;;12.50;48.10;;;;;;5006761;28;20409;-68
2023/04/08 02:23:21;;;;;;;1.90;1.10;;;12.60;46.20;;;;;;4993461;28;20432;-69
2023/04/08 02:25:48;;;;;;;2.20;1.40;;;12.50;46.40;;;;;;4991452;28;20464;-67
2023/04/08 02:28:16;;;;;;;1.90;1.30;;;12.20;47.10;;;;;;4996262;28;20786;-66
2023/04/08 02:30:44;;;;;;;2.30;1.53;;;11.90;48.90;;;;;;4987623;28;20427;-68
2023/04/08 02:33:11;;;;;;;1.80;1.20;;;12.30;48.50;;;;;;4995621;28;20763;-67
2023/04/08 02:35:39;;;;;;;2.73;1.77;;;12.40;47.70;;;;;;4994414;28;20890;-66
2023/04/08 02:38:05;;;;;;;1.80;1.10;;;12.50;46.60;;;;;;4994472;28;20500;-66
2023/04/08 02:40:32;;;;;;;10.23;1.93;;;12.60;45.90;;;;;;4994938;28;20487;-66
2023/04/08 02:42:59;;;;;;;1.90;1.20;;;12.20;46.50;;;;;;5006561;28;20553;-66
2023/04/08 02:45:30;;;;;;;1.97;1.30;;;12.20;47.70;;;;;;4999719;28;20458;-66
2023/04/08 02:47:55;;;;;;;1.80;1.20;;;12.20;46.90;;;;;;4994569;28;20417;-66
2023/04/08 02:50:21;;;;;;;2.37;1.63;;;11.80;49.00;;;;;;4993788;28;20803;-66
2023/04/08 02:52:46;;;;;;;2.07;1.40;;;12.00;48.50;;;;;;4995008;28;20665;-67
2023/04/08 02:55:12;;;;;;;2.00;1.23;;;12.40;48.30;;;;;;4988404;28;20206;-66
2023/04/08 02:57:39;;;;;;;2.10;1.40;;;12.60;47.40;;;;;;5004163;28;20310;-66
2023/04/08 03:00:06;;;;;;;2.17;1.53;;;12.50;46.30;;;;;;5008716;28;20542;-66
2023/04/08 03:02:32;;;;;;;2.10;1.50;;;12.70;46.00;;;;;;5004238;28;21068;-66
2023/04/08 03:04:58;;;;;;;1.90;1.30;;;12.70;44.30;;;;;;4994787;28;20452;-66
2023/04/08 03:07:23;;;;;;;2.17;1.40;;;12.70;45.40;;;;;;4993956;28;20216;-66
2023/04/08 03:09:49;;;;;;;2.10;1.40;;;12.80;44.90;;;;;;5009736;28;20506;-66
2023/04/08 03:12:15;;;;;;;1.70;1.10;;;12.70;44.50;;;;;;4994533;28;20244;-70
2023/04/08 03:14:41;;;;;;;1.90;1.33;;;12.50;44.20;;;;;;4993431;28;20532;-67
2023/04/08 03:17:06;;;;;;;1.87;1.20;;;12.70;45.00;;;;;;4992499;28;20221;-68
2023/04/08 03:19:32;;;;;;;2.10;1.50;;;12.90;44.60;;;;;;5002464;28;20212;-66
2023/04/08 03:21:57;;;;;;;2.40;1.53;;;12.90;44.80;;;;;;4992516;28;20173;-66
2023/04/08 03:24:23;;;;;;;2.70;1.80;;;13.10;43.80;;;;;;5009456;28;20173;-66
2023/04/08 03:26:49;;;;;;;2.37;1.60;;;13.20;43.60;;;;;;4995917;28;20245;-68
2023/04/08 03:29:14;;;;;;;1.80;1.10;;;13.00;42.80;;;;;;5006132;28;20189;-66
2023/04/08 03:31:40;;;;;;;2.20;1.47;;;12.90;42.50;;;;;;4994526;28;20182;-66
2023/04/08 03:34:05;;;;;;;1.93;1.30;;;12.90;43.80;;;;;;4989388;28;20179;-66
2023/04/08 03:36:31;;;;;;;1.80;1.20;;;13.00;43.40;;;;;;4989225;28;20241;-68
2023/04/08 03:38:57;;;;;;;2.83;1.40;;;13.10;44.30;;;;;;4985763;28;20533;-67
2023/04/08 03:41:22;;;;;;;1.80;1.20;;;13.40;43.70;;;;;;5002375;28;20166;-66
2023/04/08 03:43:48;;;;;;;1.77;1.10;;;13.20;43.00;;;;;;4994525;28;20174;-66
2023/04/08 03:46:14;;;;;;;1.90;1.30;;;12.70;43.50;;;;;;4994361;28;20201;-66
2023/04/08 03:48:39;;;;;;;2.00;1.30;;;12.40;43.20;;;;;;4990245;28;20261;-68
2023/04/08 03:51:05;;;;;;;2.57;1.73;;;12.00;45.00;;;;;;5001477;28;20186;-67
2023/04/08 03:53:30;;;;;;;1.80;1.10;;;12.10;46.30;;;;;;4993841;28;20174;-66
2023/04/08 03:55:56;;;;;;;1.80;1.20;;;12.00;46.10;;;;;;4992859;28;20213;-72
2023/04/08 03:58:22;;;;;;;2.13;1.40;;;12.20;44.80;;;;;;4990697;28;20213;-67
2023/04/08 04:00:47;;;;;;;1.80;1.10;;;12.50;43.70;;;;;;4993458;28;20178;-70
2023/04/08 04:03:13;;;;;;;1.93;1.30;;;12.80;43.20;;;;;;5001352;28;20170;-66
2023/04/08 04:05:39;;;;;;;1.87;1.20;;;12.80;42.60;;;;;;5013049;28;20208;-67
2023/04/08 04:08:05;;;;;;;2.40;1.60;;;13.00;42.90;;;;;;4995836;28;20198;-67
2023/04/08 04:10:31;;;;;;;1.80;1.10;;;12.90;42.40;;;;;;4991436;28;20433;-67
2023/04/08 04:12:56;;;;;;;1.90;1.20;;;12.90;42.60;;;;;;5000473;28;20437;-67
2023/04/08 04:15:22;;;;;;;2.00;1.30;;;13.00;42.00;;;;;;4994535;28;20198;-67
2023/04/08 04:17:49;;;;;;;1.80;1.20;;;13.10;42.00;;;;;;5005686;28;20653;-66
2023/04/08 04:20:16;;;;;;;3.13;2.00;;;13.00;41.90;;;;;;4995209;28;20188;-66
2023/04/08 04:22:41;;;;;;;1.90;1.20;;;12.90;41.70;;;;;;5000249;28;20520;-70
2023/04/08 04:25:08;;;;;;;2.00;1.30;;;13.00;41.70;;;;;;4992804;28;20861;-67
2023/04/08 04:27:34;;;;;;;1.90;1.20;;;13.00;41.30;;;;;;4993584;28;20175;-66
2023/04/08 04:30:00;;;;;;;2.20;1.40;;;13.00;41.70;;;;;;4990157;28;20434;-66
2023/04/08 04:32:25;;;;;;;2.40;1.30;;;12.90;42.50;;;;;;4996033;28;20544;-66
2023/04/08 04:34:51;;;;;;;1.97;1.20;;;12.90;42.50;;;;;;4999674;28;20786;-66
2023/04/08 04:37:17;;;;;;;1.80;1.10;;;13.00;41.30;;;;;;4993206;28;20550;-70
2023/04/08 04:39:43;;;;;;;1.90;1.20;;;12.90;41.10;;;;;;4997033;28;20177;-70
2023/04/08 04:42:08;;;;;;;1.90;1.10;;;13.00;42.70;;;;;;4994615;28;20264;-71
2023/04/08 04:44:34;;;;;;;2.20;1.57;;;12.90;42.40;;;;;;5005010;28;20435;-66
2023/04/08 04:47:00;;;;;;;2.30;1.53;;;13.10;42.40;;;;;;4994848;28;20187;-66
2023/04/08 04:49:26;;;;;;;1.83;1.10;;;12.80;42.20;;;;;;5001103;28;20181;-66
2023/04/08 04:51:52;;;;;;;1.97;1.10;;;12.90;42.10;;;;;;4992894;28;20412;-69
2023/04/08 04:54:17;;;;;;;2.23;1.43;;;12.90;41.90;;;;;;4991015;28;20181;-66
2023/04/08 04:56:43;;;;;;;2.10;1.40;;;13.10;42.10;;;;;;4999886;28;20205;-68
2023/04/08 04:59:08;;;;;;;2.83;1.80;;;13.00;41.80;;;;;;5000172;28;20624;-67
2023/04/08 05:01:34;;;;;;;2.27;1.40;;;12.90;42.40;;;;;;5000153;28;20273;-66
2023/04/08 05:04:00;;;;;;;1.90;1.20;;;12.80;43.20;;;;;;4995030;28;20178;-66
2023/04/08 05:06:26;;;;;;;1.80;1.10;;;12.70;42.40;;;;;;5008592;28;20587;-67
2023/04/08 05:08:52;;;;;;;1.90;1.20;;;12.90;42.00;;;;;;4981349;28;20179;-68
2023/04/08 05:11:18;;;;;;;2.00;1.20;;;12.80;42.30;;;;;;4991248;28;20426;-69
2023/04/08 05:13:44;;;;;;;2.17;1.30;;;12.80;42.30;;;;;;4990799;28;20170;-69
2023/04/08 05:16:09;;;;;;;1.80;1.10;;;12.80;41.70;;;;;;5001642;28;20221;-71
2023/04/08 05:18:35;;;;;;;1.87;1.10;;;12.80;42.20;;;;;;5000236;28;20525;-66
2023/04/08 05:21:01;;;;;;;1.90;1.10;;;12.90;41.40;;;;;;4991781;28;20182;-66
2023/04/08 05:23:27;;;;;;;2.00;1.20;;;12.90;41.40;;;;;;4999440;28;20527;-70
2023/04/08 05:25:53;;;;;;;1.90;1.20;;;13.00;41.20;;;;;;4989313;28;20539;-68
2023/04/08 05:28:18;;;;;;;1.80;1.10;;;12.90;41.20;;;;;;4991179;28;20580;-66
2023/04/08 05:30:51;;;;;;;1.90;1.20;;;12.90;41.50;;;;;;4992394;28;20199;-66
2023/04/08 05:33:17;;;;;;;1.90;1.20;;;13.00;40.80;;;;;;4993315;28;20281;-67
2023/04/08 05:35:43;;;;;;;1.90;1.10;;;13.10;40.20;;;;;;4998952;28;21336;-66
2023/04/08 05:38:09;;;;;;;2.30;1.40;;;13.20;39.70;;;;;;4991619;28;20556;-67
2023/04/08 05:40:34;;;;;;;11.43;2.03;;;13.40;40.30;;;;;;4990794;28;20417;-68
2023/04/08 05:43:00;;;;;;;2.07;1.30;;;12.90;41.40;;;;;;4994787;28;20177;-70
2023/04/08 05:45:27;;;;;;;1.80;1.17;;;12.60;42.20;;;;;;5002137;28;20718;-68
2023/04/08 05:47:53;;;;;;;2.63;1.20;;;11.80;47.00;;;;;;4992956;28;20189;-67
2023/04/08 05:50:18;;;;;;;3.70;1.30;;;12.00;47.20;;;;;;4992454;28;20811;-67
2023/04/08 05:52:45;;;;;;;2.20;1.63;;;12.60;44.80;;;;;;4995864;28;20682;-66
2023/04/08 05:55:11;;;;;;;2.20;1.50;;;13.00;43.20;;;;;;4996318;28;20208;-70
2023/04/08 05:57:37;;;;;;;4.83;2.10;;;12.70;42.30;;;;;;4984375;28;20464;-68
2023/04/08 06:00:05;;;;;;;2.27;1.60;;;12.50;42.90;;;;;;4985961;28;20556;-68
2023/04/08 06:02:31;;;;;;;1.90;1.30;;;12.20;44.40;;;;;;4999112;28;20182;-69
2023/04/08 06:04:56;;;;;;;1.93;1.40;;;11.70;45.50;;;;;;4997686;28;20828;-70
2023/04/08 06:07:22;;;;;;;2.00;1.30;;;12.00;45.80;;;;;;4997345;28;20239;-74
2023/04/08 06:09:47;;;;;;;1.90;1.30;;;12.20;44.80;;;;;;4992627;28;20189;-67
2023/04/08 06:12:13;;;;;;;1.70;1.20;;;12.00;45.20;;;;;;4998878;28;20246;-69
2023/04/08 06:14:39;;;;;;;1.70;1.10;;;12.00;45.30;;;;;;4995337;28;20185;-66
2023/04/08 06:17:05;;;;;;;2.07;1.50;;;11.80;45.80;;;;;;4997053;28;20202;-66
2023/04/08 06:19:30;;;;;;;1.80;1.30;;;11.90;45.70;;;;;;4989323;28;20531;-66
2023/04/08 06:21:57;;;;;;;2.00;1.40;;;11.80;45.70;;;;;;4991557;28;20413;-66
2023/04/08 06:24:28;;;;;;;1.77;1.20;;;12.30;45.20;;;;;;4990922;28;20174;-68
2023/04/08 06:26:54;;;;;;;1.83;1.30;;;11.80;45.30;;;;;;4990702;28;20460;-66
2023/04/08 06:29:21;;;;;;;2.43;1.50;;;11.70;47.00;;;;;;4990379;28;20441;-71
2023/04/08 06:31:47;;;;;;;1.80;1.20;;;11.70;45.90;;;;;;4983046;28;20433;-73
2023/04/08 06:34:13;;;;;;;1.80;1.30;;;11.70;46.60;;;;;;4987742;28;20753;-67
2023/04/08 06:36:39;;;;;;;2.00;1.40;;;11.70;45.90;;;;;;4990406;28;20452;-66
2023/04/08 06:39:04;;;;;;;2.07;1.50;;;11.60;45.90;;;;;;4989140;28;20182;-66
2023/04/08 06:41:30;;;;;;;2.10;1.33;;;11.90;45.50;;;;;;4990870;28;20202;-66
2023/04/08 06:43:55;;;;;;;1.80;1.20;;;12.00;45.50;;;;;;4991464;28;20182;-70
2023/04/08 06:46:21;;;;;;;1.90;1.37;;;12.30;43.80;;;;;;4991527;28;20191;-66
2023/04/08 06:48:47;;;;;;;2.10;1.50;;;12.10;43.70;;;;;;4990671;28;20175;-67
2023/04/08 06:51:12;;;;;;;2.10;1.50;;;12.50;43.00;;;;;;4986183;28;20189;-71
2023/04/08 06:53:38;;;;;;;1.90;1.30;;;12.80;42.50;;;;;;4993349;28;20182;-68
2023/04/08 06:56:04;;;;;;;1.90;1.20;;;13.20;41.10;;;;;;5003345;28;20193;-67
2023/04/08 06:58:29;;;;;;;1.80;1.20;;;13.40;40.60;;;;;;4995947;28;20293;-67
2023/04/08 07:00:55;;;;;;;1.83;1.30;;;13.30;40.70;;;;;;4996727;28;20182;-67
2023/04/08 07:03:21;;;;;;;3.70;2.07;;;13.40;39.60;;;;;;4996720;28;20239;-67
2023/04/08 07:05:47;;;;;;;1.80;1.20;;;13.00;39.50;;;;;;5005645;28;20625;-68
2023/04/08 07:08:12;;;;;;;1.80;1.30;;;12.60;41.20;;;;;;4992256;28;20470;-68
2023/04/08 07:10:38;;;;;;;2.57;1.30;;;12.70;41.30;;;;;;4989284;28;20268;-72
2023/04/08 07:13:04;;;;;;;1.93;1.40;;;13.00;41.20;;;;;;4993653;28;20200;-68
2023/04/08 07:15:30;;;;;;;2.10;1.53;;;13.10;40.10;;;;;;4994958;28;21568;-68
2023/04/08 07:17:55;;;;;;;2.60;1.43;;;12.10;42.20;;;;;;4989712;28;20202;-67
2023/04/08 07:20:22;;;;;;;1.80;1.30;;;12.60;43.30;;;;;;4995098;28;20444;-68
2023/04/08 07:22:48;;;;;;;2.33;1.60;;;12.50;42.90;;;;;;4999402;28;20181;-68
2023/04/08 07:25:14;;;;;;;1.90;1.40;;;12.30;43.40;;;;;;4992567;28;20465;-70
2023/04/08 07:27:39;;;;;;;3.00;1.60;;;12.20;42.70;;;;;;4996322;28;20442;-67
2023/04/08 07:30:06;;;;;;;2.83;1.40;;;12.80;42.50;;;;;;4989160;28;20193;-68
2023/04/08 07:32:32;;;;;;;1.90;1.40;;;12.50;41.70;;;;;;4985258;28;20194;-67
2023/04/08 07:34:59;;;;;;;2.33;1.87;;;12.80;42.20;;;;;;4990034;28;20508;-67
2023/04/08 07:37:25;;;;;;;1.80;1.20;;;12.20;42.60;;;;;;4997058;28;20492;-70
2023/04/08 07:39:51;;;;;;;2.10;1.63;;;11.90;44.80;;;;;;4997129;28;20947;-68
2023/04/08 07:42:17;;;;;;;1.80;1.20;;;12.60;44.50;;;;;;4990411;28;20465;-66
2023/04/08 07:44:44;;;;;;;2.00;1.53;;;12.90;41.60;;;;;;5003873;28;20174;-68
2023/04/08 07:47:10;;;;;;;1.80;1.27;;;13.40;40.70;;;;;;5000781;28;20491;-67
2023/04/08 07:49:36;;;;;;;1.70;1.10;;;13.30;39.40;;;;;;4989755;28;20911;-67
2023/04/08 07:52:02;;;;;;;1.93;1.37;;;13.60;39.10;;;;;;4991075;28;20472;-67
2023/04/08 07:54:29;;;;;;;1.70;1.10;;;13.10;39.20;;;;;;4989685;28;20190;-71
2023/04/08 07:56:55;;;;;;;1.97;1.43;;;12.80;41.30;;;;;;4981507;28;20274;-67
2023/04/08 07:59:21;;;;;;;2.20;1.50;;;12.50;40.00;;;;;;5002404;28;20955;-67
2023/04/08 08:01:47;;;;;;;2.10;1.70;;;12.40;42.20;;;;;;5006902;28;20433;-67
2023/04/08 08:04:12;;;;;;;1.77;1.20;;;12.20;42.90;;;;;;4997920;28;20178;-68
2023/04/08 08:06:38;;;;;;;2.00;1.40;;;11.80;42.60;;;;;;4984510;28;20210;-70
2023/04/08 08:09:04;;;;;;;1.77;1.10;;;11.80;43.20;;;;;;4987747;28;20225;-69
2023/04/08 08:11:31;;;;;;;1.90;1.30;;;11.70;43.20;;;;;;4983442;28;20641;-67
2023/04/08 08:13:57;;;;;;;2.43;1.80;;;12.20;44.50;;;;;;4996785;28;20436;-66
2023/04/08 08:16:25;;;;;;;2.07;1.43;;;12.40;42.20;;;;;;5007078;28;20444;-67
2023/04/08 08:18:51;;;;;;;1.90;1.20;;;12.60;41.10;;;;;;4989534;28;20197;-71
2023/04/08 08:21:17;;;;;;;1.97;1.30;;;13.00;39.70;;;;;;4996140;28;20426;-67
2023/04/08 08:23:42;;;;;;;1.70;1.10;;;12.90;39.30;;;;;;4988632;28;20190;-68
2023/04/08 08:26:09;;;;;;;1.87;1.30;;;13.10;39.10;;;;;;4986920;28;20195;-71
2023/04/08 08:28:35;;;;;;;2.23;1.40;;;13.60;38.60;;;;;;4988031;28;20188;-67
2023/04/08 08:31:02;;;;;;;2.10;1.40;;;14.20;36.30;;;;;;4994751;28;20844;-66
2023/04/08 08:33:27;;;;;;;1.90;1.20;;;13.70;36.30;;;;;;4993598;28;20468;-68
2023/04/08 08:35:54;;;;;;;2.00;1.40;;;13.40;37.20;;;;;;4992910;28;20456;-66
2023/04/08 08:38:19;;;;;;;2.10;1.30;;;13.30;38.00;;;;;;4985885;28;20282;-70
2023/04/08 08:40:45;;;;;;;2.00;1.30;;;13.40;38.50;;;;;;5001017;28;20937;-66
2023/04/08 08:43:11;;;;;;;3.40;1.90;;;13.90;37.10;;;;;;4995106;28;20201;-70
2023/04/08 08:45:40;;;;;;;2.07;1.30;;;14.30;35.60;;;;;;4992856;28;20199;-70
2023/04/08 08:48:09;;;;;;;2.23;1.47;;;14.30;35.00;;;;;;4992796;28;20419;-66
2023/04/08 08:50:35;;;;;;;2.10;1.40;;;14.30;35.60;;;;;;4992882;28;20983;-66
2023/04/08 08:53:01;;;;;;;1.87;1.23;;;13.80;35.20;;;;;;4992562;28;20494;-69
2023/04/08 08:55:31;;;;;;;1.80;1.20;;;13.60;37.50;;;;;;4992886;28;20243;-70
2023/04/08 08:57:56;;;;;;;2.47;1.40;;;13.90;36.20;;;;;;4992549;28;20490;-69
2023/04/08 09:00:37;;;;;;;1.90;1.23;;;14.30;35.80;;;;;;4993285;28;20451;-67
2023/04/08 09:03:28;;;;;;;2.70;1.80;;;14.60;35.20;;;;;;4992288;28;20172;-66
2023/04/08 09:05:54;;;;;;;2.23;1.70;;;14.70;34.80;;;;;;4992524;28;20506;-67
2023/04/08 09:08:23;;;;;;;4.63;1.63;;;14.70;33.60;;;;;;4992628;28;20413;-66
2023/04/08 09:10:49;;;;;;;2.20;1.53;;;13.70;36.40;;;;;;4992538;28;20416;-67
2023/04/08 09:13:15;;;;;;;2.23;1.43;;;13.90;37.30;;;;;;4992269;28;20945;-66
2023/04/08 09:16:00;;;;;;;2.30;1.63;;;13.70;36.60;;;;;;4992664;28;20201;-66
2023/04/08 09:18:26;;;;;;;2.20;1.40;;;14.10;36.20;;;;;;4992631;28;20906;-66
2023/04/08 09:20:54;;;;;;;2.00;1.40;;;14.20;35.50;;;;;;4992559;28;20409;-69
2023/04/08 09:23:20;;;;;;;2.40;1.40;;;14.60;35.00;;;;;;4990812;28;20269;-66
2023/04/08 09:25:45;;;;;;;2.47;1.60;;;14.30;33.60;;;;;;4992242;28;20509;-69
2023/04/08 09:28:20;;;;;;;2.00;1.30;;;13.70;35.60;;;;;;4992326;28;20664;-66
2023/04/08 09:30:46;;;;;;;4.50;1.73;;;13.70;35.80;;;;;;4992394;28;20184;-66
2023/04/08 09:33:12;;;;;;;2.10;1.40;;;13.60;34.70;;;;;;4992133;28;20409;-66
2023/04/08 09:35:38;;;;;;;3.13;1.93;;;13.20;37.20;;;;;;4992332;28;20444;-67
2023/04/08 09:38:04;;;;;;;2.47;1.30;;;14.40;34.50;;;;;;4991981;28;20453;-70
2023/04/08 09:40:33;;;;;;;2.03;1.37;;;15.30;32.40;;;;;;4992064;28;20166;-66
2023/04/08 09:43:04;;;;;;;2.00;1.30;;;15.50;31.90;;;;;;4991846;28;20175;-66
2023/04/08 09:45:33;;;;;;;2.17;1.50;;;14.60;31.80;;;;;;4992156;28;20506;-66
2023/04/08 09:48:16;;;;;;;2.10;1.30;;;14.90;33.40;;;;;;4992126;28;20908;-67
2023/04/08 09:50:50;;;;;;;2.10;1.43;;;14.90;33.20;;;;;;4992092;28;20400;-67
2023/04/08 09:53:34;;;;;;;2.20;1.50;;;15.70;30.70;;;;;;4992175;28;20497;-66
2023/04/08 09:56:01;;;;;;;2.00;1.30;;;14.70;31.30;;;;;;4992081;28;20452;-66
2023/04/08 09:58:38;;;;;;;2.60;1.80;;;15.10;33.30;;;;;;4991961;28;20952;-68
2023/04/08 10:01:05;;;;;;;3.00;1.53;;;16.30;30.60;;;;;;4992013;28;20503;-66
2023/04/08 10:03:39;;;;;;;2.00;1.30;;;16.90;29.00;;;;;;4991618;28;20406;-67
2023/04/08 10:06:07;;;;;;;2.27;1.50;;;17.30;28.70;;;;;;4991782;28;20442;-70
2023/04/08 10:08:33;;;;;;;2.20;1.43;;;17.50;27.50;;;;;;4991970;28;20478;-68
2023/04/08 10:10:59;;;;;;;2.20;1.50;;;17.60;27.20;;;;;;4991862;28;20413;-68
2023/04/08 10:13:31;;;;;;;2.50;1.60;;;18.10;26.80;;;;;;4991671;28;20409;-70
2023/04/08 10:16:23;;;;;;;2.93;1.50;;;18.20;25.70;;;;;;4991491;28;20645;-69
2023/04/08 10:18:51;;;;;;;2.47;1.60;;;18.00;26.60;;;;;;4992108;28;20869;-66
2023/04/08 10:21:49;;;;;;;2.57;1.63;;;18.20;25.00;;;;;;4991821;28;20514;-67
2023/04/08 10:24:14;;;;;;;2.20;1.43;;;18.30;23.70;;;;;;4991770;28;20962;-66
2023/04/08 10:26:42;;;;;;;2.63;1.63;;;18.40;23.60;;;;;;4992945;28;20512;-66
2023/04/08 10:29:16;;;;;;;2.23;1.53;;;18.20;25.30;;;;;;4995844;28;20194;-67
2023/04/08 10:31:46;;;;;;;2.50;1.70;;;17.80;24.00;;;;;;4996078;28;20465;-66
2023/04/08 10:34:24;;;;;;;2.57;1.67;;;17.30;25.20;;;;;;4995188;28;20418;-66
2023/04/08 10:36:50;;;;;;;2.87;2.03;;;17.20;25.30;;;;;;4995364;28;20512;-67
2023/04/08 10:39:16;;;;;;;2.30;1.57;;;16.80;24.50;;;;;;4995403;28;20412;-69
2023/04/08 10:41:44;;;;;;;3.07;1.93;;;17.00;24.20;;;;;;4995458;28;20169;-70
2023/04/08 10:44:20;;;;;;;3.00;2.07;;;17.50;26.30;;;;;;4995001;28;20417;-66
2023/04/08 10:46:46;;;;;;;2.27;1.43;;;17.50;22.00;;;;;;4995036;28;20441;-68
2023/04/08 10:49:13;;;;;;;3.17;2.10;;;17.60;23.60;;;;;;4995064;28;20920;-67
2023/04/08 10:51:40;;;;;;;2.70;1.70;;;17.90;22.40;;;;;;4995589;28;20415;-66
2023/04/08 10:54:09;;;;;;;2.40;1.57;;;16.80;23.70;;;;;;4994963;28;20415;-69
2023/04/08 10:56:49;;;;;;;3.03;2.00;;;16.60;23.70;;;;;;4995232;28;20443;-66
2023/04/08 10:59:16;;;;;;;3.33;2.17;;;17.10;23.90;;;;;;4994945;28;20499;-66
2023/04/08 11:01:43;;;;;;;2.43;1.60;;;17.10;23.90;;;;;;4995110;28;20951;-67
2023/04/08 11:04:14;;;;;;;3.20;1.77;;;18.10;22.90;;;;;;4994742;28;20443;-67
2023/04/08 11:06:42;;;;;;;3.03;1.70;;;18.70;23.20;;;;;;4994744;28;20459;-67
2023/04/08 11:09:07;;;;;;;3.80;2.03;;;18.40;22.80;;;;;;4994546;28;20411;-67
2023/04/08 11:11:33;;;;;;;3.17;2.00;;;17.70;23.50;;;;;;4994821;28;20403;-66
2023/04/08 11:14:00;;;;;;;3.47;1.80;;;17.80;23.30;;;;;;4994518;28;20177;-67
2023/04/08 11:16:26;;;;;;;2.10;1.30;;;17.70;24.70;;;;;;4994535;28;20428;-66
2023/04/08 11:18:53;;;;;;;2.40;1.60;;;16.80;22.60;;;;;;4994766;28;21044;-70
2023/04/08 11:21:19;;;;;;;4.13;2.00;;;15.50;24.40;;;;;;4994765;28;20410;-69
2023/04/08 11:23:48;;;;;;;2.20;1.43;;;14.90;25.40;;;;;;4994490;28;20507;-70
2023/04/08 11:26:14;;;;;;;2.70;1.80;;;14.40;27.40;;;;;;4994539;28;20800;-66
2023/04/08 11:28:40;;;;;;;1.93;1.30;;;14.40;27.10;;;;;;4994489;28;20424;-66
2023/04/08 11:31:07;;;;;;;2.87;1.70;;;15.20;26.00;;;;;;4994307;28;20409;-66
2023/04/08 11:33:34;;;;;;;2.70;1.73;;;15.90;26.90;;;;;;4993169;28;20229;-67
2023/04/08 11:36:03;;;;;;;2.90;1.77;;;16.20;25.70;;;;;;4994727;28;20803;-67
2023/04/08 11:38:28;;;;;;;2.10;1.43;;;16.50;24.70;;;;;;4993311;28;20465;-67
2023/04/08 11:40:57;;;;;;;2.20;1.47;;;16.30;24.60;;;;;;4994203;28;20413;-66
2023/04/08 11:43:23;;;;;;;3.30;1.77;;;16.30;24.20;;;;;;4994098;28;20236;-69
2023/04/08 11:45:49;;;;;;;2.27;1.53;;;16.10;24.00;;;;;;4994528;28;20925;-69
2023/04/08 11:48:16;;;;;;;2.20;1.37;;;16.00;24.50;;;;;;4994274;28;20413;-68
2023/04/08 11:50:42;;;;;;;2.40;1.50;;;15.80;25.60;;;;;;4994761;28;20775;-68
2023/04/08 11:53:24;;;;;;;2.53;1.57;;;16.00;24.70;;;;;;4993933;28;20414;-66
2023/04/08 11:55:49;;;;;;;2.53;1.67;;;16.20;24.60;;;;;;4994090;28;20469;-67
2023/04/08 11:58:15;;;;;;;2.00;1.30;;;16.30;23.30;;;;;;4993998;28;20492;-69
2023/04/08 12:00:41;;;;;;;2.03;1.30;;;16.30;22.50;;;;;;4994239;28;20201;-66
2023/04/08 12:03:07;;;;;;;2.20;1.57;;;16.40;23.40;;;;;;4993855;28;20415;-66
2023/04/08 12:05:33;;;;;;;2.40;1.60;;;16.00;24.00;;;;;;4993639;28;20452;-66
2023/04/08 12:07:59;;;;;;;2.40;1.60;;;16.00;23.10;;;;;;4995342;28;20414;-66
2023/04/08 12:10:24;;;;;;;2.53;1.90;;;16.00;23.20;;;;;;5000260;28;20821;-66
2023/04/08 12:12:50;;;;;;;2.13;1.43;;;16.10;23.10;;;;;;4998733;28;20174;-66
2023/04/08 12:15:16;;;;;;;2.10;1.40;;;16.20;23.30;;;;;;4999005;28;20250;-66
2023/04/08 12:17:42;;;;;;;2.87;1.70;;;16.10;24.10;;;;;;4996609;28;20698;-70
2023/04/08 12:20:09;;;;;;;2.37;1.60;;;16.20;23.20;;;;;;5000673;28;20488;-67
2023/04/08 12:22:35;;;;;;;2.30;1.70;;;16.50;22.60;;;;;;5000902;28;20414;-67
2023/04/08 12:25:02;;;;;;;2.53;1.60;;;16.60;23.50;;;;;;5000895;28;20433;-67
2023/04/08 12:27:28;;;;;;;2.17;1.60;;;16.90;23.70;;;;;;4999799;28;20175;-70
2023/04/08 12:29:54;;;;;;;2.33;1.63;;;17.00;22.10;;;;;;4999601;28;20420;-69
2023/04/08 12:32:20;;;;;;;2.20;1.50;;;17.00;21.00;;;;;;4998613;28;20467;-69
2023/04/08 12:34:46;;;;;;;2.50;1.77;;;16.80;21.60;;;;;;4993039;28;20449;-66
2023/04/08 12:37:12;;;;;;;2.00;1.37;;;16.90;21.90;;;;;;4993553;28;20488;-66
2023/04/08 12:39:37;;;;;;;2.33;1.50;;;16.40;22.10;;;;;;4993567;28;20170;-66
2023/04/08 12:42:03;;;;;;;2.93;2.07;;;16.50;22.30;;;;;;4993575;28;20640;-67
2023/04/08 12:44:29;;;;;;;2.10;1.50;;;16.80;21.30;;;;;;4993000;28;20200;-67
2023/04/08 12:46:57;;;;;;;2.20;1.50;;;16.60;22.40;;;;;;4993032;28;20230;-67
2023/04/08 12:49:23;;;;;;;2.67;1.90;;;15.80;22.30;;;;;;4992881;28;20464;-69